createdAt,value
2024-02-12T00:03:28.884Z,96776.48
2024-02-12T00:08:34.671Z,96783.24
2024-02-12T00:13:40.819Z,96789.36
2024-02-12T00:18:47.901Z,96788.14
2024-02-12T00:23:54.000Z,96795.08
2024-02-12T00:28:59.979Z,96800.70
2024-02-12T00:34:05.632Z,96802.19
2024-02-12T00:39:11.235Z,96806.70
2024-02-12T00:44:17.670Z,96806.75
2024-02-12T00:49:24.822Z,96813.81
2024-02-12T00:54:31.425Z,96813.77
2024-02-12T00:59:40.239Z,96814.02
2024-02-12T01:04:45.943Z,96819.27
2024-02-12T01:09:51.558Z,96823.17
2024-02-12T01:14:57.352Z,96825.69
2024-02-12T01:20:03.069Z,96824.80
2024-02-12T01:25:09.545Z,96827.63
2024-02-12T01:30:16.429Z,96831.83
2024-02-12T01:35:23.388Z,96830.51
2024-02-12T01:40:29.299Z,96830.23
2024-02-12T01:45:35.655Z,96822.92
2024-02-12T01:50:41.889Z,96823.69
2024-02-12T01:55:48.762Z,96825.55
2024-02-12T02:00:55.043Z,96824.09
2024-02-12T02:05:59.194Z,96828.95
2024-02-12T02:11:06.091Z,96827.83
2024-02-12T02:16:12.267Z,96831.04
2024-02-12T02:21:19.793Z,96833.96
2024-02-12T02:26:26.312Z,96836.80
2024-02-12T02:31:34.995Z,96837.95
2024-02-12T02:36:40.617Z,96843.22
2024-02-12T02:41:47.292Z,96849.18
2024-02-12T02:46:52.943Z,96854.96
2024-02-12T02:52:00.101Z,96857.71
2024-02-12T02:57:07.033Z,96859.33
2024-02-12T03:02:14.224Z,96865.77
2024-02-12T03:07:20.346Z,96867.86
2024-02-12T03:12:28.048Z,96870.53
2024-02-12T03:17:33.979Z,96878.02
2024-02-12T03:22:42.537Z,96885.45
2024-02-12T03:27:48.175Z,96890.47
2024-02-12T03:32:54.007Z,96899.80
2024-02-12T03:37:59.981Z,96900.98
2024-02-12T03:43:06.755Z,96907.25
2024-02-12T03:48:32.630Z,96909.92
2024-02-12T03:53:58.064Z,96917.21
2024-02-12T03:59:35.650Z,96924.14
2024-02-12T04:04:41.400Z,96931.67
2024-02-12T04:09:47.039Z,96931.84
2024-02-12T04:14:54.540Z,96929.38
2024-02-12T04:20:01.372Z,96930.86
2024-02-12T04:25:08.217Z,96929.41
2024-02-12T04:30:16.018Z,96939.69
2024-02-12T04:35:21.709Z,96939.30
2024-02-12T04:40:27.695Z,96941.60
2024-02-12T04:45:33.310Z,96949.88
2024-02-12T04:50:38.981Z,96950.23
2024-02-12T04:55:44.876Z,96947.13
2024-02-12T05:00:50.639Z,96951.06
2024-02-12T05:05:56.462Z,96956.30
2024-02-12T05:11:02.139Z,96963.66
2024-02-12T05:16:10.035Z,96963.18
2024-02-12T05:21:35.171Z,96970.73
2024-02-12T05:26:41.688Z,96967.83
2024-02-12T05:31:47.569Z,96971.16
2024-02-12T05:36:54.894Z,96983.65
2024-02-12T05:42:00.555Z,96985.67
2024-02-12T05:47:07.421Z,96990.63
2024-02-12T05:52:13.503Z,96999.77
2024-02-12T05:57:20.433Z,97000.08
2024-02-12T06:02:26.254Z,97007.73
2024-02-12T06:07:35.984Z,97011.58
2024-02-12T06:12:44.604Z,97015.32
2024-02-12T06:17:50.290Z,97017.83
2024-02-12T06:22:56.043Z,97025.25
2024-02-12T06:28:01.810Z,97028.85
2024-02-12T06:33:09.192Z,97034.02
2024-02-12T06:38:16.134Z,97039.83
2024-02-12T06:43:21.887Z,97049.69
2024-02-12T06:48:27.799Z,97050.04
2024-02-12T06:53:34.423Z,97056.23
2024-02-12T06:58:40.256Z,97065.68
2024-02-12T07:03:48.208Z,97062.52
2024-02-12T07:08:57.980Z,97067.76
2024-02-12T07:14:05.081Z,97068.84
2024-02-12T07:19:10.991Z,97070.50
2024-02-12T07:24:16.845Z,97075.42
2024-02-12T07:29:23.342Z,97078.64
2024-02-12T07:34:30.153Z,97079.30
2024-02-12T07:39:36.317Z,97088.21
2024-02-12T07:44:43.516Z,97092.31
2024-02-12T07:49:49.258Z,97099.67
2024-02-12T07:54:55.006Z,97105.42
2024-02-12T08:00:05.295Z,97107.67
2024-02-12T08:05:11.382Z,97109.45
2024-02-12T08:10:17.159Z,97112.08
2024-02-12T08:15:21.817Z,97116.56
2024-02-12T08:20:28.124Z,97116.11
2024-02-12T08:25:34.183Z,97122.05
2024-02-12T08:30:39.812Z,97126.23
2024-02-12T08:35:45.592Z,97129.50
2024-02-12T08:40:51.880Z,97128.61
2024-02-12T08:45:56.021Z,97131.06
2024-02-12T08:51:01.563Z,97134.87
2024-02-12T08:56:08.322Z,97141.13
2024-02-12T09:01:15.273Z,97145.86
2024-02-12T09:06:20.962Z,97151.44
2024-02-12T09:11:28.539Z,97158.63
2024-02-12T09:16:34.196Z,97163.48
2024-02-12T09:21:43.680Z,97169.19
2024-02-12T09:26:49.612Z,97176.30
2024-02-12T09:31:55.235Z,97180.20
2024-02-12T09:37:00.844Z,97183.69
2024-02-12T09:42:08.904Z,97185.04
2024-02-12T09:47:18.401Z,97192.16
2024-02-12T09:52:27.751Z,97197.59
2024-02-12T09:57:34.209Z,97203.34
2024-02-12T10:02:41.771Z,97204.98
2024-02-12T10:07:47.713Z,97207.88
2024-02-12T10:12:56.416Z,97208.69
2024-02-12T10:18:02.573Z,97210.20
2024-02-12T10:23:10.345Z,97213.30
2024-02-12T10:28:16.389Z,97216.67
2024-02-12T10:33:22.627Z,97217.02
2024-02-12T10:38:31.522Z,97212.17
2024-02-12T10:43:41.534Z,97217.98
2024-02-12T10:48:50.083Z,97222.39
2024-02-12T10:53:58.452Z,97219.98
2024-02-12T10:59:06.429Z,97223.36
2024-02-12T11:04:17.364Z,97223.88
2024-02-12T11:09:34.043Z,97217.30
2024-02-12T11:14:47.512Z,97211.95
2024-02-12T11:19:53.465Z,97211.19
2024-02-12T11:25:10.171Z,97215.09
2024-02-12T11:30:20.412Z,97219.63
2024-02-12T11:35:26.308Z,97220.86
2024-02-12T11:40:31.050Z,97220.78
2024-02-12T11:45:38.391Z,97222.02
2024-02-12T11:50:44.197Z,97217.88
2024-02-12T11:55:48.738Z,97219.02
2024-02-12T12:00:55.115Z,97222.64
2024-02-12T12:06:01.042Z,97223.40
2024-02-12T12:11:12.500Z,97224.25
2024-02-12T12:16:19.605Z,97220.58
2024-02-12T12:21:25.319Z,97227.64
2024-02-12T12:26:31.066Z,97226.48
2024-02-12T12:31:37.778Z,97224.44
2024-02-12T12:36:43.526Z,97224.83
2024-02-12T12:41:51.267Z,97228.35
2024-02-12T12:46:57.646Z,97229.28
2024-02-12T12:52:03.730Z,97235.23
2024-02-12T12:57:10.511Z,97234.17
2024-02-12T13:02:16.134Z,97239.02
2024-02-12T13:07:22.062Z,97247.61
2024-02-12T13:12:31.912Z,97249.77
2024-02-12T13:17:37.806Z,97254.16
2024-02-12T13:22:55.013Z,97256.48
2024-02-12T13:28:02.532Z,97259.69
2024-02-12T13:33:11.013Z,97266.38
2024-02-12T13:38:20.176Z,97276.39
2024-02-12T13:43:26.605Z,97281.89
2024-02-12T13:48:33.335Z,97285.73
2024-02-12T13:53:40.007Z,97289.85
2024-02-12T13:58:45.876Z,97292.23
2024-02-12T14:03:52.003Z,97293.80
2024-02-12T14:08:58.753Z,97295.05
2024-02-12T14:14:04.660Z,97301.98
2024-02-12T14:19:12.473Z,97311.06
2024-02-12T14:24:19.731Z,97312.41
2024-02-12T14:29:26.473Z,97319.60
2024-02-12T14:34:32.355Z,97325.62
2024-02-12T14:39:39.758Z,97331.30
2024-02-12T14:44:46.437Z,97334.86
2024-02-12T14:49:52.574Z,97333.91
2024-02-12T14:54:56.707Z,97336.70
2024-02-12T15:00:04.452Z,97345.70
2024-02-12T15:05:15.051Z,97353.84
2024-02-12T15:10:22.901Z,97355.83
2024-02-12T15:15:33.916Z,97368.38
2024-02-12T15:20:39.772Z,97373.48
2024-02-12T15:25:46.744Z,97379.31
2024-02-12T15:30:53.506Z,97386.73
2024-02-12T15:36:01.155Z,97387.73
2024-02-12T15:41:07.330Z,97389.38
2024-02-12T15:46:13.379Z,97398.79
2024-02-12T15:51:17.599Z,97406.69
2024-02-12T15:56:25.430Z,97410.00
2024-02-12T16:01:36.057Z,97419.39
2024-02-12T16:06:41.865Z,97428.92
2024-02-12T16:11:47.952Z,97437.61
2024-02-12T16:16:52.121Z,97441.66
2024-02-12T16:21:59.348Z,97450.27
2024-02-12T16:27:07.248Z,97455.46
2024-02-12T16:32:12.944Z,97459.31
2024-02-12T16:37:18.802Z,97468.30
2024-02-12T16:42:26.860Z,97474.57
2024-02-12T16:47:33.064Z,97479.49
2024-02-12T16:52:39.528Z,97491.45
2024-02-12T16:57:45.497Z,97492.98
2024-02-12T17:02:50.016Z,97502.48
2024-02-12T17:08:05.965Z,97509.86
2024-02-12T17:13:14.886Z,97512.13
2024-02-12T17:18:20.945Z,97516.41
2024-02-12T17:23:27.561Z,97519.97
2024-02-12T17:28:33.297Z,97525.20
2024-02-12T17:33:38.968Z,97527.68
2024-02-12T17:38:46.960Z,97534.36
2024-02-12T17:43:56.625Z,97540.25
2024-02-12T17:49:05.308Z,97550.26
2024-02-12T17:54:13.895Z,97558.08
2024-02-12T17:59:19.510Z,97569.79
2024-02-12T18:04:25.237Z,97571.10
2024-02-12T18:09:31.071Z,97573.34
2024-02-12T18:14:37.222Z,97573.95
2024-02-12T18:19:48.793Z,97579.08
2024-02-12T18:24:58.434Z,97589.73
2024-02-12T18:30:04.469Z,97598.38
2024-02-12T18:35:12.830Z,97601.27
2024-02-12T18:40:19.440Z,97610.09
2024-02-12T18:45:26.463Z,97615.67
2024-02-12T18:50:33.536Z,97622.77
2024-02-12T18:55:39.248Z,97627.83
2024-02-12T19:00:45.011Z,97636.92
2024-02-12T19:05:51.873Z,97640.95
2024-02-12T19:10:58.070Z,97647.67
2024-02-12T19:16:04.737Z,97652.05
2024-02-12T19:21:10.637Z,97663.78
2024-02-12T19:26:16.372Z,97671.73
2024-02-12T19:31:22.038Z,97674.54
2024-02-12T19:36:28.701Z,97681.52
2024-02-12T19:41:34.986Z,97690.59
2024-02-12T19:46:42.579Z,97700.12
2024-02-12T19:51:48.871Z,97706.77
2024-02-12T19:56:54.484Z,97714.48
2024-02-12T20:02:03.388Z,97725.39
2024-02-12T20:07:09.518Z,97730.64
2024-02-12T20:12:15.199Z,97738.34
2024-02-12T20:17:20.994Z,97744.23
2024-02-12T20:22:26.825Z,97747.80
2024-02-12T20:27:32.439Z,97760.14
2024-02-12T20:32:38.312Z,97764.17
2024-02-12T20:37:44.152Z,97770.26
2024-02-12T20:42:49.926Z,97774.28
2024-02-12T20:47:55.809Z,97783.55
2024-02-12T20:53:00.162Z,97788.93
2024-02-12T20:58:08.720Z,97788.36
2024-02-12T21:03:14.407Z,97798.23
2024-02-12T21:08:26.573Z,97806.52
2024-02-12T21:13:32.889Z,97814.77
2024-02-12T21:18:39.325Z,97816.43
2024-02-12T21:23:45.105Z,97815.66
2024-02-12T21:28:52.839Z,97827.09
2024-02-12T21:33:59.627Z,97829.23
2024-02-12T21:39:10.503Z,97838.91
2024-02-12T21:44:16.608Z,97847.22
2024-02-12T21:49:23.895Z,97852.45
2024-02-12T21:54:29.511Z,97853.75
2024-02-12T21:59:35.681Z,97858.02
2024-02-12T22:04:41.851Z,97867.72
2024-02-12T22:09:47.504Z,97875.01
2024-02-12T22:14:55.498Z,97879.38
2024-02-12T22:20:01.373Z,97889.99
2024-02-12T22:25:08.336Z,97901.30
2024-02-12T22:30:16.116Z,97905.20
2024-02-12T22:35:21.830Z,97915.95
2024-02-12T22:40:28.147Z,97922.38
2024-02-12T22:45:32.415Z,97931.46
2024-02-12T22:50:41.114Z,97937.05
2024-02-12T22:55:48.586Z,97944.76
2024-02-12T23:00:56.893Z,97949.42
2024-02-12T23:06:09.849Z,97954.94
2024-02-12T23:11:20.201Z,97959.50
2024-02-12T23:16:25.969Z,97962.13
2024-02-12T23:21:33.385Z,97969.21
2024-02-12T23:26:46.652Z,97974.83
2024-02-12T23:31:54.329Z,97977.98
2024-02-12T23:37:02.401Z,97989.41
2024-02-12T23:42:17.600Z,97991.40
2024-02-12T23:47:26.265Z,97993.77
2024-02-12T23:52:34.740Z,97997.88
2024-02-12T23:57:41.247Z,98004.72
